createdAt,value
2018-04-19T00:00:44.296Z,70.75
2018-04-19T00:01:44.290Z,70.46
2018-04-19T00:02:44.283Z,71.61
2018-04-19T00:03:44.277Z,71.09
2018-04-19T00:04:44.272Z,71.86
2018-04-19T00:05:44.265Z,73.10
2018-04-19T00:06:44.259Z,73.10
2018-04-19T00:07:44.254Z,72.53
2018-04-19T00:08:44.248Z,73.29
2018-04-19T00:09:44.243Z,72.91
2018-04-19T00:10:44.236Z,73.96
2018-04-19T00:11:44.233Z,73.77
2018-04-19T00:12:44.228Z,73.67
2018-04-19T00:13:44.217Z,74.44
2018-04-19T00:14:44.211Z,75.01
2018-04-19T00:15:44.207Z,75.20
2018-04-19T00:16:44.198Z,74.73
2018-04-19T00:17:44.193Z,73.67
2018-04-19T00:18:44.186Z,74.53
2018-04-19T00:19:44.180Z,74.44
2018-04-19T00:20:44.211Z,73.58
2018-04-19T00:21:44.167Z,74.05
2018-04-19T00:22:44.161Z,72.05
2018-04-19T00:23:44.154Z,72.62
2018-04-19T00:24:44.151Z,73.39
2018-04-19T00:25:44.143Z,72.62
2018-04-19T00:26:44.138Z,73.19
2018-04-19T00:27:44.131Z,74.34
2018-04-19T00:28:44.122Z,73.96
2018-04-19T00:29:44.116Z,74.15
2018-04-19T00:30:44.109Z,74.34
2018-04-19T00:31:44.104Z,75.39
2018-04-19T00:32:44.098Z,74.44
2018-04-19T00:33:44.092Z,74.15
2018-04-19T00:34:44.085Z,73.67
2018-04-19T00:35:44.079Z,72.24
2018-04-19T00:36:44.084Z,71.47
2018-04-19T00:37:44.067Z,71.86
2018-04-19T00:38:44.059Z,71.28
2018-04-19T00:39:44.056Z,70.07
2018-04-19T00:40:44.047Z,70.36
2018-04-19T00:41:44.042Z,70.36
2018-04-19T00:42:44.035Z,70.75
2018-04-19T00:43:44.028Z,70.75
2018-04-19T00:44:44.023Z,71.42
2018-04-19T00:45:44.017Z,70.75
2018-04-19T00:46:44.010Z,70.75
2018-04-19T00:47:44.003Z,70.94
2018-04-19T00:48:43.996Z,70.84
2018-04-19T00:49:43.990Z,69.79
2018-04-19T00:50:43.984Z,68.84
2018-04-19T00:51:43.979Z,69.21
2018-04-19T00:52:43.973Z,70.56
2018-04-19T00:53:43.968Z,70.27
2018-04-19T00:54:43.960Z,70.65
2018-04-19T00:55:43.952Z,72.47
2018-04-19T00:56:43.957Z,71.80
2018-04-19T00:57:43.940Z,72.85
2018-04-19T00:58:43.933Z,73.14
2018-04-19T00:59:43.927Z,71.95
2018-04-19T01:00:43.921Z,72.14
2018-04-19T01:01:43.915Z,72.47
2018-04-19T01:02:43.909Z,73.10
2018-04-19T01:03:43.902Z,73.96
2018-04-19T01:04:43.896Z,73.77
2018-04-19T01:05:43.891Z,73.67
2018-04-19T01:06:43.884Z,73.77
2018-04-19T01:07:43.877Z,74.53
2018-04-19T01:08:43.871Z,73.77
2018-04-19T01:09:43.867Z,73.86
2018-04-19T01:10:43.859Z,74.53
2018-04-19T01:11:43.853Z,74.91
2018-04-19T01:12:43.847Z,75.20
2018-04-19T01:13:43.845Z,74.73
2018-04-19T01:14:43.833Z,74.34
2018-04-19T01:15:43.828Z,74.73
2018-04-19T01:16:43.822Z,74.44
2018-04-19T01:17:43.816Z,74.49
2018-04-19T01:18:43.809Z,74.21
2018-04-19T01:19:43.803Z,75.16
2018-04-19T01:20:43.797Z,75.26
2018-04-19T01:21:43.790Z,74.98
2018-04-19T01:22:43.788Z,75.83
2018-04-19T01:23:43.776Z,76.12
2018-04-19T01:24:43.772Z,76.69
2018-04-19T01:25:43.764Z,76.60
2018-04-19T01:26:43.758Z,76.79
2018-04-19T01:27:43.752Z,76.40
2018-04-19T01:28:43.745Z,76.88
2018-04-19T01:29:43.739Z,76.79
2018-04-19T01:30:43.739Z,77.08
2018-04-19T01:31:43.726Z,77.94
2018-04-19T01:32:43.719Z,77.65
2018-04-19T01:33:43.713Z,78.03
2018-04-19T01:34:43.706Z,77.84
2018-04-19T01:35:43.700Z,78.03
2018-04-19T01:36:43.694Z,77.65
2018-04-19T01:37:43.688Z,77.36
2018-04-19T01:38:43.684Z,77.55
2018-04-19T01:39:43.675Z,77.08
2018-04-19T01:40:43.667Z,76.50
2018-04-19T01:41:43.661Z,76.88
2018-04-19T01:42:43.655Z,77.55
2018-04-19T01:43:43.648Z,77.94
2018-04-19T01:44:43.643Z,77.32
2018-04-19T01:45:43.636Z,77.89
2018-04-19T01:46:43.629Z,78.66
2018-04-19T01:47:43.624Z,79.52
2018-04-19T01:48:43.616Z,79.23
2018-04-19T01:49:43.610Z,79.04
2018-04-19T01:50:43.602Z,78.75
2018-04-19T01:51:43.596Z,79.23
2018-04-19T01:52:43.589Z,79.23
2018-04-19T01:53:43.583Z,79.52
2018-04-19T01:54:43.575Z,79.80
2018-04-19T01:55:43.570Z,79.33
2018-04-19T01:56:43.563Z,79.04
2018-04-19T01:57:43.555Z,78.94
2018-04-19T01:58:43.549Z,79.23
2018-04-19T01:59:43.542Z,79.52
2018-04-19T02:00:43.541Z,79.43
2018-04-19T02:01:43.530Z,79.33
2018-04-19T02:02:43.523Z,79.52
2018-04-19T02:03:43.516Z,79.80
2018-04-19T02:04:43.510Z,79.71
2018-04-19T02:05:43.503Z,79.23
2018-04-19T02:06:43.495Z,79.61
2018-04-19T02:07:43.488Z,79.90
2018-04-19T02:08:43.482Z,80.28
2018-04-19T02:09:43.476Z,80.76
2018-04-19T02:10:43.470Z,80.19
2018-04-19T02:11:43.463Z,79.71
2018-04-19T02:12:43.463Z,79.43
2018-04-19T02:13:43.448Z,79.80
2018-04-19T02:14:43.442Z,79.61
2018-04-19T02:15:43.434Z,80.28
2018-04-19T02:16:43.429Z,80.57
2018-04-19T02:17:43.422Z,79.99
2018-04-19T02:18:43.460Z,79.71
2018-04-19T02:19:43.407Z,79.52
2018-04-19T02:20:43.400Z,79.43
2018-04-19T02:21:43.393Z,79.80
2018-04-19T02:22:43.386Z,79.14
2018-04-19T02:23:43.379Z,79.33
2018-04-19T02:24:43.373Z,79.71
2018-04-19T02:25:43.366Z,79.80
2018-04-19T02:26:43.359Z,78.75
2018-04-19T02:27:43.359Z,78.85
2018-04-19T02:28:43.347Z,77.61
2018-04-19T02:29:43.340Z,76.84
2018-04-19T02:30:43.333Z,77.42
2018-04-19T02:31:43.326Z,78.18
2018-04-19T02:32:43.319Z,78.66
2018-04-19T02:33:43.312Z,78.66
2018-04-19T02:34:43.305Z,79.43
2018-04-19T02:35:43.340Z,78.94
2018-04-19T02:36:43.292Z,77.89
2018-04-19T02:37:43.289Z,78.37
2018-04-19T02:38:43.280Z,77.80
2018-04-19T02:39:43.272Z,78.18
2018-04-19T02:40:43.269Z,78.85
2018-04-19T02:41:43.258Z,79.52
2018-04-19T02:42:43.250Z,79.52
2018-04-19T02:43:43.250Z,79.80
2018-04-19T02:44:43.236Z,80.28
2018-04-19T02:45:43.230Z,79.14
2018-04-19T02:46:43.223Z,78.18
2018-04-19T02:47:43.216Z,77.23
2018-04-19T02:48:43.207Z,76.94
2018-04-19T02:49:43.204Z,76.84
2018-04-19T02:50:43.194Z,76.46
2018-04-19T02:51:43.188Z,77.13
2018-04-19T02:52:43.188Z,76.84
2018-04-19T02:53:43.177Z,75.89
2018-04-19T02:54:43.186Z,76.37
2018-04-19T02:55:43.163Z,76.37
2018-04-19T02:56:43.153Z,77.42
2018-04-19T02:57:43.168Z,77.03
2018-04-19T02:58:43.139Z,77.51
2018-04-19T02:59:43.135Z,77.23
2018-04-19T03:00:43.126Z,77.23
2018-04-19T03:01:43.118Z,77.32
2018-04-19T03:02:43.111Z,77.99
2018-04-19T03:03:43.105Z,78.85
2018-04-19T03:04:43.097Z,78.75
2018-04-19T03:05:43.089Z,78.75
2018-04-19T03:06:43.082Z,79.96
2018-04-19T03:07:43.079Z,80.28
2018-04-19T03:08:43.069Z,80.15
2018-04-19T03:09:43.062Z,79.96
2018-04-19T03:10:43.055Z,80.15
2018-04-19T03:11:43.047Z,80.91
2018-04-19T03:12:43.040Z,80.81
2018-04-19T03:13:43.034Z,81.58
2018-04-19T03:14:43.026Z,81.38
2018-04-19T03:15:43.021Z,81.86
2018-04-19T03:16:43.015Z,82.43
2018-04-19T03:17:43.005Z,82.06
2018-04-19T03:18:42.998Z,82.53
2018-04-19T03:19:42.991Z,82.68
2018-04-19T03:20:42.984Z,82.78
2018-04-19T03:21:42.978Z,83.06
2018-04-19T03:22:42.969Z,82.87
2018-04-19T03:23:42.962Z,82.87
2018-04-19T03:24:42.956Z,82.78
2018-04-19T03:25:42.949Z,82.59
2018-04-19T03:26:42.940Z,83.54
2018-04-19T03:27:42.933Z,84.11
2018-04-19T03:28:42.927Z,83.83
2018-04-19T03:29:42.921Z,83.35
2018-04-19T03:30:42.913Z,83.73
2018-04-19T03:31:42.905Z,84.01
2018-04-19T03:32:42.900Z,84.20
2018-04-19T03:33:42.891Z,83.35
2018-04-19T03:34:42.882Z,83.35
2018-04-19T03:35:42.876Z,83.44
2018-04-19T03:36:42.869Z,84.01
2018-04-19T03:37:42.862Z,84.40
2018-04-19T03:38:42.852Z,84.49
2018-04-19T03:39:42.847Z,85.16
2018-04-19T03:40:42.859Z,85.25
2018-04-19T03:41:42.831Z,85.25
2018-04-19T03:42:42.824Z,85.54
2018-04-19T03:43:42.816Z,85.54
2018-04-19T03:44:42.809Z,85.06
2018-04-19T03:45:42.801Z,84.69
2018-04-19T03:46:42.794Z,84.40
2018-04-19T03:47:42.789Z,83.92
2018-04-19T03:48:42.779Z,84.01
2018-04-19T03:49:42.773Z,84.59
2018-04-19T03:50:42.764Z,84.97
2018-04-19T03:51:42.756Z,84.59
2018-04-19T03:52:42.749Z,84.97
2018-04-19T03:53:42.743Z,84.69
2018-04-19T03:54:42.734Z,84.78
2018-04-19T03:55:42.726Z,84.49
2018-04-19T03:56:42.719Z,84.78
2018-04-19T03:57:42.712Z,85.16
2018-04-19T03:58:42.706Z,84.88
2018-04-19T03:59:42.697Z,85.16
2018-04-19T04:00:42.691Z,85.54
2018-04-19T04:01:42.683Z,85.73
2018-04-19T04:02:42.674Z,85.06
2018-04-19T04:03:42.667Z,85.35
2018-04-19T04:04:42.661Z,84.88
2018-04-19T04:05:42.654Z,84.88
2018-04-19T04:06:42.645Z,85.41
2018-04-19T04:07:42.637Z,85.78
2018-04-19T04:08:42.630Z,85.88
2018-04-19T04:09:42.622Z,85.02
2018-04-19T04:10:42.614Z,85.50
2018-04-19T04:11:42.608Z,84.83
2018-04-19T04:12:42.600Z,85.12
2018-04-19T04:13:42.594Z,85.21
2018-04-19T04:14:42.585Z,84.92
2018-04-19T04:15:42.578Z,84.59
2018-04-19T04:16:42.571Z,84.59
2018-04-19T04:17:42.564Z,85.02
2018-04-19T04:18:42.555Z,85.02
2018-04-19T04:19:42.549Z,85.97
2018-04-19T04:20:42.540Z,85.02
2018-04-19T04:21:42.533Z,85.41
2018-04-19T04:22:42.529Z,85.31
2018-04-19T04:23:42.518Z,85.41
2018-04-19T04:24:42.509Z,85.41
2018-04-19T04:25:42.502Z,85.97
2018-04-19T04:26:42.495Z,86.26
2018-04-19T04:27:42.490Z,86.07
2018-04-19T04:28:42.479Z,86.16
2018-04-19T04:29:42.472Z,85.97
2018-04-19T04:30:42.465Z,85.69
2018-04-19T04:31:42.461Z,85.83
2018-04-19T04:32:42.450Z,84.88
2018-04-19T04:33:42.448Z,84.59
2018-04-19T04:34:42.434Z,84.40
2018-04-19T04:35:42.427Z,84.01
2018-04-19T04:36:42.418Z,84.69
2018-04-19T04:37:42.411Z,84.88
2018-04-19T04:38:42.407Z,85.06
2018-04-19T04:39:42.400Z,84.69
2018-04-19T04:40:42.388Z,83.83
2018-04-19T04:41:42.385Z,84.01
2018-04-19T04:42:42.373Z,84.40
2018-04-19T04:43:42.366Z,84.11
2018-04-19T04:44:42.359Z,83.54
2018-04-19T04:45:42.352Z,82.20
2018-04-19T04:46:42.345Z,82.43
2018-04-19T04:47:42.340Z,83.01
2018-04-19T04:48:42.328Z,82.43
2018-04-19T04:49:42.320Z,82.43
2018-04-19T04:50:42.312Z,82.06
2018-04-19T04:51:42.307Z,81.58
2018-04-19T04:52:42.298Z,80.15
2018-04-19T04:53:42.293Z,79.57
2018-04-19T04:54:42.282Z,80.62
2018-04-19T04:55:42.276Z,80.62
2018-04-19T04:56:42.269Z,80.33
2018-04-19T04:57:42.263Z,81.29
2018-04-19T04:58:42.254Z,77.86
2018-04-19T04:59:42.247Z,78.18
2018-04-19T05:00:42.240Z,76.46
2018-04-19T05:01:42.233Z,77.23
2018-04-19T05:02:42.225Z,76.56
2018-04-19T05:03:42.218Z,76.75
2018-04-19T05:04:42.210Z,76.27
2018-04-19T05:05:42.224Z,75.54
2018-04-19T05:06:42.197Z,75.54
2018-04-19T05:07:42.188Z,75.26
2018-04-19T05:08:42.182Z,75.16
2018-04-19T05:09:42.174Z,73.92
2018-04-19T05:10:42.166Z,73.92
2018-04-19T05:11:42.161Z,73.39
2018-04-19T05:12:42.154Z,72.53
2018-04-19T05:13:42.146Z,73.29
2018-04-19T05:14:42.138Z,74.24
2018-04-19T05:15:42.133Z,74.63
2018-04-19T05:16:42.126Z,73.19
2018-04-19T05:17:42.118Z,71.19
2018-04-19T05:18:42.110Z,71.28
2018-04-19T05:19:42.103Z,71.57
2018-04-19T05:20:42.101Z,71.89
2018-04-19T05:21:42.091Z,71.28
2018-04-19T05:22:42.083Z,71.22
2018-04-19T05:23:42.076Z,71.61
2018-04-19T05:24:42.070Z,69.21
2018-04-19T05:25:42.065Z,68.74
2018-04-19T05:26:42.057Z,68.49
2018-04-19T05:27:42.055Z,67.34
2018-04-19T05:28:42.042Z,66.57
2018-04-19T05:29:42.038Z,66.28
2018-04-19T05:30:42.030Z,65.71
2018-04-19T05:31:42.039Z,65.74
2018-04-19T05:32:42.017Z,65.17
2018-04-19T05:33:42.011Z,64.59
2018-04-19T05:34:42.007Z,63.73
2018-04-19T05:35:41.997Z,64.40
2018-04-19T05:36:41.990Z,64.12
2018-04-19T05:37:41.984Z,63.19
2018-04-19T05:38:41.977Z,62.33
2018-04-19T05:39:41.970Z,61.18
2018-04-19T05:40:41.964Z,61.66
2018-04-19T05:41:41.959Z,61.11
2018-04-19T05:42:41.951Z,61.31
2018-04-19T05:43:41.945Z,60.64
2018-04-19T05:44:41.939Z,60.64
2018-04-19T05:45:41.933Z,59.87
2018-04-19T05:46:41.926Z,59.87
2018-04-19T05:47:41.919Z,60.25
2018-04-19T05:48:41.947Z,60.16
2018-04-19T05:49:41.907Z,60.83
2018-04-19T05:50:41.900Z,60.44
2018-04-19T05:51:41.895Z,60.06
2018-04-19T05:52:41.889Z,59.80
2018-04-19T05:53:41.884Z,59.61
2018-04-19T05:54:41.878Z,59.61
2018-04-19T05:55:41.873Z,58.84
2018-04-19T05:56:41.867Z,59.13
2018-04-19T05:57:41.861Z,58.46
2018-04-19T05:58:41.857Z,58.65
2018-04-19T05:59:41.854Z,57.79
2018-04-19T06:00:41.844Z,58.01
2018-04-19T06:01:41.837Z,59.16
2018-04-19T06:02:41.831Z,58.49
2018-04-19T06:03:41.827Z,58.49
2018-04-19T06:04:41.822Z,58.30
2018-04-19T06:05:41.818Z,57.53
2018-04-19T06:06:41.812Z,58.39
2018-04-19T06:07:41.810Z,59.06
2018-04-19T06:08:41.857Z,58.11
2018-04-19T06:09:41.803Z,57.75
2018-04-19T06:10:41.790Z,57.08
2018-04-19T06:11:41.787Z,56.79
2018-04-19T06:12:41.781Z,56.12
2018-04-19T06:13:41.775Z,56.41
2018-04-19T06:14:41.770Z,57.18
2018-04-19T06:15:41.767Z,57.08
2018-04-19T06:16:41.761Z,55.83
2018-04-19T06:17:41.758Z,56.70
2018-04-19T06:18:41.751Z,56.98
2018-04-19T06:19:41.751Z,57.30
2018-04-19T06:20:41.743Z,56.82
2018-04-19T06:21:41.739Z,55.86
2018-04-19T06:22:41.734Z,56.73
2018-04-19T06:23:41.730Z,55.96
2018-04-19T06:24:41.726Z,55.29
2018-04-19T06:25:41.721Z,54.90
2018-04-19T06:26:41.715Z,54.74
2018-04-19T06:27:41.715Z,54.83
2018-04-19T06:28:41.710Z,53.68
2018-04-19T06:29:41.706Z,54.74
2018-04-19T06:30:41.698Z,55.32
2018-04-19T06:31:41.693Z,53.78
2018-04-19T06:32:41.690Z,54.06
2018-04-19T06:33:41.686Z,53.68
2018-04-19T06:34:41.687Z,53.52
2018-04-19T06:35:41.677Z,54.19
2018-04-19T06:36:41.673Z,54.09
2018-04-19T06:37:41.671Z,53.42
2018-04-19T06:38:41.665Z,53.13
2018-04-19T06:39:41.662Z,52.65
2018-04-19T06:40:41.658Z,53.23
2018-04-19T06:41:41.654Z,52.94
2018-04-19T06:42:41.649Z,54.31
2018-04-19T06:43:41.647Z,52.77
2018-04-19T06:44:41.642Z,52.48
2018-04-19T06:45:41.642Z,53.83
2018-04-19T06:46:41.635Z,55.76
2018-04-19T06:47:41.635Z,53.92
2018-04-19T06:48:41.628Z,54.79
2018-04-19T06:49:41.626Z,53.76
2018-04-19T06:50:41.622Z,52.80
2018-04-19T06:51:41.618Z,51.74
2018-04-19T06:52:41.617Z,52.22
2018-04-19T06:53:41.613Z,51.64
2018-04-19T06:54:41.610Z,51.84
2018-04-19T06:55:41.608Z,52.63
2018-04-19T06:56:41.605Z,50.99
2018-04-19T06:57:41.602Z,49.07
2018-04-19T06:58:41.598Z,49.48
2018-04-19T06:59:41.597Z,49.00
2018-04-19T07:00:41.595Z,48.71
2018-04-19T07:01:41.596Z,49.10
2018-04-19T07:02:41.595Z,50.73
2018-04-19T07:03:41.588Z,50.25
2018-04-19T07:04:41.584Z,49.38
2018-04-19T07:05:41.585Z,50.95
2018-04-19T07:06:41.584Z,49.02
2018-04-19T07:07:41.579Z,48.74
2018-04-19T07:08:41.577Z,49.02
2018-04-19T07:09:41.579Z,49.24
2018-04-19T07:10:41.574Z,47.89
2018-04-19T07:11:41.572Z,48.08
2018-04-19T07:12:41.572Z,49.73
2018-04-19T07:13:41.571Z,49.91
2018-04-19T07:14:41.623Z,50.11
2018-04-19T07:15:41.570Z,48.01
2018-04-19T07:16:41.571Z,46.18
2018-04-19T07:17:41.573Z,45.60
2018-04-19T07:18:41.574Z,45.92
2018-04-19T07:19:41.578Z,45.53
2018-04-19T07:20:41.577Z,45.04
2018-04-19T07:21:41.580Z,45.36
2018-04-19T07:22:41.584Z,45.26
2018-04-19T07:23:41.592Z,44.01
2018-04-19T07:24:41.592Z,44.12
2018-04-19T07:25:41.602Z,43.26
2018-04-19T07:26:41.602Z,45.48
2018-04-19T07:27:41.607Z,45.18
2018-04-19T07:28:41.613Z,45.01
2018-04-19T07:29:41.621Z,43.28
2018-04-19T07:30:41.629Z,41.94
2018-04-19T07:31:41.631Z,41.66
2018-04-19T07:32:41.640Z,41.87
2018-04-19T07:33:41.648Z,40.88
2018-04-19T07:34:41.652Z,41.19
2018-04-19T07:35:41.661Z,41.87
2018-04-19T07:36:41.669Z,40.61
2018-04-19T07:37:41.679Z,41.11
2018-04-19T07:38:41.684Z,39.16
2018-04-19T07:39:41.692Z,38.68
2018-04-19T07:40:41.702Z,39.95
2018-04-19T07:41:41.712Z,39.86
2018-04-19T07:42:41.717Z,39.28
2018-04-19T07:43:41.726Z,39.18
2018-04-19T07:44:41.738Z,40.05
2018-04-19T07:45:41.743Z,40.15
2018-04-19T07:46:41.752Z,39.01
2018-04-19T07:47:41.762Z,39.88
2018-04-19T07:48:41.772Z,39.88
2018-04-19T07:49:41.781Z,38.73
2018-04-19T07:50:41.791Z,40.77
2018-04-19T07:51:41.799Z,38.93
2018-04-19T07:52:41.810Z,38.73
2018-04-19T07:53:41.820Z,37.87
2018-04-19T07:54:41.830Z,38.15
2018-04-19T07:55:41.839Z,37.88
2018-04-19T07:56:41.853Z,37.49
2018-04-19T07:58:41.879Z,37.57
2018-04-19T07:59:41.883Z,38.45
2018-04-19T08:00:41.892Z,38.85
2018-04-19T08:01:41.903Z,41.76
2018-04-19T08:02:41.913Z,40.33
2018-04-19T08:03:41.924Z,38.09
2018-04-19T08:04:41.936Z,37.71
2018-04-19T08:05:41.948Z,37.61
2018-04-19T08:06:41.964Z,37.05
2018-04-19T08:07:41.971Z,37.53
2018-04-19T08:08:41.981Z,37.05
2018-04-19T08:09:41.994Z,36.85
2018-04-19T08:10:42.004Z,37.05
2018-04-19T08:11:42.017Z,37.84
2018-04-19T08:12:42.034Z,36.10
2018-04-19T08:13:42.041Z,36.38
2018-04-19T08:14:42.052Z,36.56
2018-04-19T08:15:42.063Z,37.43
2018-04-19T08:16:42.079Z,37.55
2018-04-19T08:17:42.088Z,37.45
2018-04-19T08:18:42.100Z,37.47
2018-04-19T08:19:42.111Z,37.66
2018-04-19T08:20:42.125Z,38.46
2018-04-19T08:21:42.138Z,36.32
2018-04-19T08:22:42.150Z,36.04
2018-04-19T08:23:42.162Z,36.13
2018-04-19T08:24:42.176Z,36.04
2018-04-19T08:25:42.189Z,35.84
2018-04-19T08:26:42.202Z,36.13
2018-04-19T08:27:42.216Z,35.57
2018-04-19T08:28:42.229Z,35.74
2018-04-19T08:29:42.251Z,36.54
2018-04-19T08:30:42.255Z,36.44
2018-04-19T08:31:42.269Z,35.96
2018-04-19T08:32:42.283Z,35.06
2018-04-19T08:33:42.297Z,37.39
2018-04-19T08:34:42.308Z,35.45
2018-04-19T08:35:42.324Z,35.74
2018-04-19T08:36:42.337Z,36.83
2018-04-19T08:37:42.351Z,34.79
2018-04-19T08:38:42.383Z,35.64
2018-04-19T08:39:42.378Z,35.47
2018-04-19T08:40:42.392Z,34.11
2018-04-19T08:41:42.406Z,35.10
2018-04-19T08:42:42.419Z,34.22
2018-04-19T08:43:42.434Z,33.73
2018-04-19T08:44:42.448Z,32.96
2018-04-19T08:45:42.463Z,33.06
2018-04-19T08:46:42.477Z,34.03
2018-04-19T08:47:42.491Z,34.52
2018-04-19T08:48:42.506Z,34.12
2018-04-19T08:49:42.520Z,35.10
2018-04-19T08:50:42.534Z,35.00
2018-04-19T08:51:42.550Z,36.75
2018-04-19T08:52:42.563Z,34.12
2018-04-19T08:53:42.579Z,33.43
2018-04-19T08:54:42.594Z,34.97
2018-04-19T08:55:42.605Z,34.48
2018-04-19T08:56:42.620Z,35.14
2018-04-19T08:57:42.633Z,35.43
2018-04-19T08:58:42.645Z,35.43
2018-04-19T08:59:42.660Z,35.55
2018-04-19T09:00:42.676Z,35.35
2018-04-19T09:01:42.687Z,35.25
2018-04-19T09:02:42.732Z,37.12
2018-04-19T09:03:42.715Z,35.45
2018-04-19T09:04:42.730Z,36.13
2018-04-19T09:05:42.744Z,36.13
2018-04-19T09:06:42.755Z,34.67
2018-04-19T09:07:42.772Z,34.58
2018-04-19T09:08:42.783Z,36.15
2018-04-19T09:09:42.801Z,36.94
2018-04-19T09:10:42.813Z,34.53
2018-04-19T09:11:42.827Z,34.72
2018-04-19T09:12:42.841Z,34.53
2018-04-19T09:13:42.856Z,33.85
2018-04-19T09:14:42.868Z,34.92
2018-04-19T09:15:42.885Z,34.92
2018-04-19T09:16:42.898Z,35.50
2018-04-19T09:17:42.914Z,35.03
2018-04-19T09:18:42.928Z,33.85
2018-04-19T09:19:42.943Z,35.21
2018-04-19T09:20:42.958Z,35.70
2018-04-19T09:21:42.974Z,35.11
2018-04-19T09:22:42.989Z,35.31
2018-04-19T09:23:43.004Z,35.50
2018-04-19T09:24:43.020Z,38.34
2018-04-19T09:25:43.036Z,35.61
2018-04-19T09:26:43.063Z,35.99
2018-04-19T09:27:43.067Z,38.54
2018-04-19T09:28:43.081Z,35.33
2018-04-19T09:29:43.097Z,36.98
2018-04-19T09:30:43.116Z,33.98
2018-04-19T09:31:43.133Z,34.76
2018-04-19T09:32:43.146Z,34.47
2018-04-19T09:33:43.161Z,34.17
2018-04-19T09:34:43.176Z,35.65
2018-04-19T09:35:43.193Z,35.77
2018-04-19T09:36:43.214Z,34.40
2018-04-19T09:37:43.227Z,34.52
2018-04-19T09:38:43.243Z,33.73
2018-04-19T09:39:43.262Z,32.76
2018-04-19T09:40:43.278Z,35.38
2018-04-19T09:41:43.297Z,35.77
2018-04-19T09:42:43.313Z,34.99
2018-04-19T09:43:43.329Z,35.96
2018-04-19T09:44:43.347Z,33.12
2018-04-19T09:45:43.365Z,34.29
2018-04-19T09:46:43.386Z,35.65
2018-04-19T09:47:43.396Z,35.65
2018-04-19T09:48:43.413Z,35.55
2018-04-19T09:49:43.431Z,36.92
2018-04-19T09:50:43.446Z,36.24
2018-04-19T09:51:43.464Z,36.43
2018-04-19T09:52:43.487Z,36.04
2018-04-19T09:53:43.497Z,36.43
2018-04-19T09:54:43.519Z,36.45
2018-04-19T09:55:43.530Z,34.52
2018-04-19T09:56:43.548Z,34.79
2018-04-19T09:57:43.566Z,35.67
2018-04-19T09:58:43.585Z,36.66
2018-04-19T09:59:43.600Z,35.71
2018-04-19T10:00:43.620Z,36.19
2018-04-19T10:01:43.637Z,35.10
2018-04-19T10:02:43.652Z,36.58
2018-04-19T10:03:43.672Z,34.34
2018-04-19T10:04:43.689Z,36.29
2018-04-19T10:05:43.707Z,36.19
2018-04-19T10:06:43.725Z,36.41
2018-04-19T10:07:43.744Z,35.24
2018-04-19T10:08:43.763Z,33.89
2018-04-19T10:09:43.782Z,34.94
2018-04-19T10:10:43.800Z,34.16
2018-04-19T10:11:43.818Z,36.60
2018-04-19T10:12:43.840Z,34.96
2018-04-19T10:13:43.858Z,34.28
2018-04-19T10:14:43.875Z,33.69
2018-04-19T10:15:43.895Z,34.68
2018-04-19T10:16:43.914Z,32.73
2018-04-19T10:17:43.934Z,32.73
2018-04-19T10:18:43.954Z,33.31
2018-04-19T10:19:43.973Z,34.58
2018-04-19T10:20:43.993Z,30.19
2018-04-19T10:21:44.012Z,30.47
2018-04-19T10:22:44.032Z,30.96
2018-04-19T10:23:44.049Z,29.47
2018-04-19T10:24:44.067Z,30.35
2018-04-19T10:25:44.087Z,30.05
2018-04-19T10:26:44.104Z,31.52
2018-04-19T10:27:44.122Z,31.23
2018-04-19T10:28:44.142Z,33.18
2018-04-19T10:29:44.161Z,32.01
2018-04-19T10:30:44.178Z,32.81
2018-04-19T10:31:44.196Z,31.93
2018-04-19T10:32:44.214Z,30.18
2018-04-19T10:33:44.247Z,30.86
2018-04-19T10:34:44.250Z,31.05
2018-04-19T10:35:44.271Z,33.89
2018-04-19T10:36:44.287Z,31.92
2018-04-19T10:37:44.304Z,32.03
2018-04-19T10:38:44.321Z,32.11
2018-04-19T10:39:44.339Z,32.60
2018-04-19T10:40:44.358Z,32.70
2018-04-19T10:41:44.376Z,31.51
2018-04-19T10:42:44.393Z,33.17
2018-04-19T10:43:44.410Z,33.95
2018-04-19T10:44:44.428Z,35.33
2018-04-19T10:45:44.446Z,32.70
2018-04-19T10:46:44.461Z,32.13
2018-04-19T10:47:44.482Z,32.01
2018-04-19T10:48:44.496Z,31.62
2018-04-19T10:49:44.514Z,31.72
2018-04-19T10:50:44.531Z,33.28
2018-04-19T10:51:44.550Z,32.99
2018-04-19T10:52:44.565Z,31.72
2018-04-19T10:53:44.583Z,34.16
2018-04-19T10:54:44.600Z,33.38
2018-04-19T10:55:44.617Z,32.31
2018-04-19T10:56:44.634Z,32.87
2018-04-19T10:57:44.649Z,32.40
2018-04-19T10:58:44.666Z,33.48
2018-04-19T10:59:44.684Z,34.26
2018-04-19T11:00:44.700Z,33.01
2018-04-19T11:01:44.716Z,31.84
2018-04-19T11:02:44.732Z,33.67
2018-04-19T11:03:44.751Z,32.89
2018-04-19T11:04:44.767Z,33.77
2018-04-19T11:05:44.783Z,34.28
2018-04-19T11:06:44.799Z,33.01
2018-04-19T11:07:44.817Z,31.15
2018-04-19T11:08:44.834Z,31.82
2018-04-19T11:09:44.852Z,31.82
2018-04-19T11:10:44.867Z,32.40
2018-04-19T11:11:44.886Z,30.65
2018-04-19T11:12:44.902Z,31.62
2018-04-19T11:13:44.920Z,34.75
2018-04-19T11:14:44.934Z,32.11
2018-04-19T11:15:44.954Z,32.70
2018-04-19T11:16:44.968Z,31.33
2018-04-19T11:17:44.986Z,32.70
2018-04-19T11:18:45.004Z,31.92
2018-04-19T11:19:45.023Z,32.13
2018-04-19T11:20:45.035Z,30.76
2018-04-19T11:21:45.052Z,32.81
2018-04-19T11:22:45.068Z,32.70
2018-04-19T11:23:45.084Z,33.11
2018-04-19T11:24:45.102Z,32.73
2018-04-19T11:25:45.118Z,30.29
2018-04-19T11:26:45.135Z,30.27
2018-04-19T11:27:45.153Z,31.84
2018-04-19T11:28:45.168Z,31.84
2018-04-19T11:29:45.184Z,31.84
2018-04-19T11:30:45.201Z,31.54
2018-04-19T11:31:45.216Z,30.58
2018-04-19T11:32:45.234Z,33.12
2018-04-19T11:33:45.255Z,30.47
2018-04-19T11:34:45.266Z,30.47
2018-04-19T11:35:45.285Z,31.43
2018-04-19T11:36:45.300Z,33.28
2018-04-19T11:37:45.316Z,33.11
2018-04-19T11:38:45.333Z,32.63
2018-04-19T11:39:45.347Z,31.36
2018-04-19T11:40:45.367Z,30.30
2018-04-19T11:41:45.382Z,29.98
2018-04-19T11:42:45.397Z,30.38
2018-04-19T11:43:45.413Z,32.63
2018-04-19T11:44:45.431Z,30.59
2018-04-19T11:45:45.448Z,30.20
2018-04-19T11:46:45.464Z,30.48
2018-04-19T11:47:45.479Z,31.18
2018-04-19T11:48:45.498Z,28.74
2018-04-19T11:49:45.517Z,27.94
2018-04-19T11:50:45.529Z,29.20
2018-04-19T11:51:45.546Z,30.45
2018-04-19T11:52:45.564Z,30.65
2018-04-19T11:53:45.579Z,29.77
2018-04-19T11:54:45.596Z,30.26
2018-04-19T11:55:45.612Z,29.28
2018-04-19T11:56:45.628Z,29.85
2018-04-19T11:57:45.645Z,30.93
2018-04-19T11:58:45.660Z,31.80
2018-04-19T11:59:45.675Z,32.13
2018-04-19T12:00:45.690Z,30.38
2018-04-19T12:01:45.707Z,29.32
2018-04-19T12:02:45.720Z,33.04
2018-04-19T12:03:45.737Z,30.32
2018-04-19T12:04:45.752Z,30.43
2018-04-19T12:05:45.769Z,28.67
2018-04-19T12:06:45.785Z,28.86
2018-04-19T12:07:45.801Z,26.90
2018-04-19T12:08:45.818Z,27.29
2018-04-19T12:09:45.835Z,28.47
2018-04-19T12:10:45.850Z,27.39
2018-04-19T12:11:45.867Z,27.49
2018-04-19T12:12:45.883Z,27.20
2018-04-19T12:13:45.915Z,29.25
2018-04-19T12:14:45.916Z,28.88
2018-04-19T12:15:45.932Z,27.50
2018-04-19T12:16:45.947Z,27.10
2018-04-19T12:17:45.964Z,27.69
2018-04-19T12:18:45.980Z,28.18
2018-04-19T12:19:45.996Z,28.26
2018-04-19T12:20:46.013Z,27.20
2018-04-19T12:21:46.029Z,28.38
2018-04-19T12:22:46.044Z,28.08
2018-04-19T12:23:46.059Z,27.29
2018-04-19T12:24:46.076Z,29.36
2018-04-19T12:25:46.092Z,27.52
2018-04-19T12:26:46.108Z,26.75
2018-04-19T12:27:46.123Z,26.83
2018-04-19T12:28:46.139Z,27.62
2018-04-19T12:29:46.155Z,25.77
2018-04-19T12:30:46.170Z,26.25
2018-04-19T12:31:46.187Z,24.68
2018-04-19T12:32:46.203Z,24.46
2018-04-19T12:33:46.219Z,25.43
2018-04-19T12:34:46.234Z,27.77
2018-04-19T12:35:46.249Z,27.29
2018-04-19T12:36:46.264Z,27.39
2018-04-19T12:37:46.282Z,28.19
2018-04-19T12:38:46.299Z,26.93
2018-04-19T12:39:46.309Z,26.15
2018-04-19T12:40:46.324Z,27.44
2018-04-19T12:41:46.343Z,26.16
2018-04-19T12:42:46.354Z,24.97
2018-04-19T12:43:46.369Z,25.35
2018-04-19T12:44:46.385Z,25.06
2018-04-19T12:45:46.398Z,26.22
2018-04-19T12:46:46.414Z,27.77
2018-04-19T12:47:46.427Z,27.58
2018-04-19T12:48:46.445Z,26.11
2018-04-19T12:49:46.455Z,26.39
2018-04-19T12:50:46.467Z,27.97
2018-04-19T12:51:46.482Z,27.39
2018-04-19T12:52:46.497Z,27.39
2018-04-19T12:53:46.512Z,26.04